createdAt,value
2022-09-28T00:03:44.317Z,4.40
2022-09-28T00:09:20.473Z,4.80
2022-09-28T00:12:15.643Z,5.10
2022-09-28T00:14:46.661Z,5.40
2022-09-28T00:17:24.166Z,4.90
2022-09-28T00:19:54.321Z,4.50
2022-09-28T00:22:30.526Z,5.10
2022-09-28T00:25:02.651Z,5.00
2022-09-28T00:27:36.993Z,4.80
2022-09-28T00:30:08.569Z,4.80
2022-09-28T00:32:42.495Z,4.90
2022-09-28T00:35:21.660Z,4.30
2022-09-28T00:37:51.404Z,4.20
2022-09-28T00:40:29.146Z,4.70
2022-09-28T00:43:16.710Z,4.60
2022-09-28T00:46:02.740Z,4.20
2022-09-28T00:48:39.890Z,4.00
2022-09-28T00:51:22.582Z,3.50
2022-09-28T00:53:58.594Z,3.70
2022-09-28T00:56:56.403Z,4.50
2022-09-28T00:59:25.106Z,4.50
2022-09-28T01:01:56.932Z,4.60
2022-09-28T01:04:29.282Z,4.00
2022-09-28T01:07:16.713Z,4.00
2022-09-28T01:10:02.602Z,4.10
2022-09-28T01:12:42.114Z,4.20
2022-09-28T01:15:32.829Z,3.90
2022-09-28T01:18:34.626Z,4.30
2022-09-28T01:21:22.538Z,4.30
2022-09-28T01:24:20.735Z,3.90
2022-09-28T01:27:29.484Z,4.50
2022-09-28T01:30:21.078Z,3.90
2022-09-28T01:33:22.779Z,3.80
2022-09-28T01:35:57.067Z,3.80
2022-09-28T01:38:51.596Z,3.90
2022-09-28T01:41:24.746Z,3.90
2022-09-28T01:44:23.826Z,4.50
2022-09-28T01:47:03.749Z,4.00
2022-09-28T01:49:42.004Z,3.80
2022-09-28T01:52:47.190Z,3.70
2022-09-28T01:55:31.836Z,4.10
2022-09-28T01:58:36.978Z,4.10
2022-09-28T02:01:27.195Z,4.00
2022-09-28T02:04:14.290Z,4.40
2022-09-28T02:07:21.838Z,3.70
2022-09-28T02:10:36.010Z,4.20
2022-09-28T02:13:43.179Z,4.90
2022-09-28T02:16:46.136Z,4.20
2022-09-28T02:19:31.325Z,4.00
2022-09-28T02:22:44.426Z,4.30
2022-09-28T02:25:46.748Z,4.70
2022-09-28T02:28:15.415Z,4.80
2022-09-28T02:30:49.308Z,5.20
2022-09-28T02:33:45.948Z,5.00
2022-09-28T02:36:40.286Z,4.80
2022-09-28T02:39:22.641Z,4.90
2022-09-28T02:42:31.957Z,4.50
2022-09-28T02:45:39.005Z,5.00
2022-09-28T02:48:47.262Z,5.20
2022-09-28T02:51:35.156Z,4.60
2022-09-28T02:54:38.628Z,4.80
2022-09-28T02:57:54.601Z,4.80
2022-09-28T03:00:24.507Z,4.70
2022-09-28T03:03:21.483Z,5.30
2022-09-28T03:06:18.680Z,4.70
2022-09-28T03:09:02.544Z,5.40
2022-09-28T03:11:53.873Z,5.90
2022-09-28T03:17:18.727Z,5.20
2022-09-28T03:20:03.255Z,5.20
2022-09-28T03:22:35.158Z,4.90
2022-09-28T03:25:07.832Z,4.80
2022-09-28T03:27:54.489Z,5.20
2022-09-28T03:30:23.229Z,5.40
2022-09-28T03:33:04.247Z,5.40
2022-09-28T03:35:51.572Z,5.50
2022-09-28T03:38:31.191Z,5.70
2022-09-28T03:41:01.874Z,5.30
2022-09-28T03:43:54.594Z,5.80
2022-09-28T03:46:28.199Z,5.20
2022-09-28T03:49:20.186Z,5.70
2022-09-28T03:51:56.851Z,5.40
2022-09-28T03:54:37.940Z,6.10
2022-09-28T03:57:09.654Z,5.80
2022-09-28T04:00:05.118Z,5.50
2022-09-28T04:02:48.691Z,5.90
2022-09-28T04:05:17.385Z,6.00
2022-09-28T04:07:53.952Z,5.80
2022-09-28T04:10:26.018Z,6.10
2022-09-28T04:13:05.503Z,6.20
2022-09-28T04:15:36.916Z,5.00
2022-09-28T04:18:14.655Z,5.60
2022-09-28T04:21:20.732Z,6.00
2022-09-28T04:24:01.768Z,6.10
2022-09-28T04:26:34.369Z,5.40
2022-09-28T04:29:18.286Z,6.20
2022-09-28T04:32:06.039Z,5.40
2022-09-28T04:34:44.312Z,5.40
2022-09-28T04:37:31.389Z,5.60
2022-09-28T04:40:09.291Z,6.00
2022-09-28T04:42:40.046Z,6.00
2022-09-28T04:45:22.850Z,5.20
2022-09-28T04:47:55.967Z,5.20
2022-09-28T04:51:05.532Z,5.30
2022-09-28T04:53:40.169Z,4.80
2022-09-28T04:56:14.823Z,5.60
2022-09-28T04:58:43.825Z,5.30
2022-09-28T05:01:25.230Z,5.50
2022-09-28T05:04:02.083Z,5.20
2022-09-28T05:07:03.351Z,5.50
2022-09-28T05:09:41.109Z,4.90
2022-09-28T05:12:33.988Z,5.00
2022-09-28T05:15:08.450Z,4.60
2022-09-28T05:17:39.434Z,4.70
2022-09-28T05:20:15.271Z,4.40
2022-09-28T05:22:45.479Z,4.40
2022-09-28T05:25:20.609Z,4.60
2022-09-28T05:28:03.889Z,4.30
2022-09-28T05:30:52.478Z,4.80
2022-09-28T05:33:47.295Z,4.60
2022-09-28T05:36:27.070Z,3.90
2022-09-28T05:39:04.251Z,4.50
2022-09-28T05:41:41.758Z,4.70
2022-09-28T05:44:10.496Z,4.80
2022-09-28T05:46:39.322Z,4.20
2022-09-28T05:49:13.921Z,4.30
2022-09-28T05:51:42.069Z,3.60
2022-09-28T05:54:20.157Z,3.90
2022-09-28T05:56:51.275Z,3.60
2022-09-28T05:59:19.574Z,3.80
2022-09-28T06:01:55.697Z,4.30
2022-09-28T06:04:24.264Z,3.80
2022-09-28T06:06:57.529Z,3.90
2022-09-28T06:09:26.365Z,4.20
2022-09-28T06:12:00.185Z,3.90
2022-09-28T06:14:39.206Z,4.10
2022-09-28T06:17:10.634Z,4.20
2022-09-28T06:19:41.303Z,4.00
2022-09-28T06:22:26.316Z,3.80
2022-09-28T06:25:22.398Z,4.40
2022-09-28T06:28:09.295Z,4.20
2022-09-28T06:30:38.845Z,4.20
2022-09-28T06:33:15.161Z,3.70
2022-09-28T06:35:45.648Z,4.60
2022-09-28T06:38:14.209Z,4.30
2022-09-28T06:40:42.221Z,3.80
2022-09-28T06:43:15.263Z,4.10
2022-09-28T06:46:02.918Z,3.90
2022-09-28T06:49:06.370Z,3.70
2022-09-28T06:51:57.027Z,4.20
2022-09-28T06:54:57.359Z,3.80
2022-09-28T06:57:35.805Z,2.80
2022-09-28T07:00:04.639Z,3.20
2022-09-28T07:02:32.893Z,3.30
2022-09-28T07:05:30.028Z,3.20
2022-09-28T07:08:22.176Z,3.20
2022-09-28T07:11:09.007Z,3.30
2022-09-28T07:13:50.768Z,3.60
2022-09-28T07:16:28.599Z,3.50
2022-09-28T07:19:03.094Z,3.30
2022-09-28T07:21:34.262Z,3.10
2022-09-28T07:24:14.363Z,3.60
2022-09-28T07:27:12.714Z,3.40
2022-09-28T07:29:58.921Z,3.00
2022-09-28T07:32:58.138Z,3.60
2022-09-28T07:35:42.021Z,3.20
2022-09-28T07:38:19.347Z,2.80
2022-09-28T07:41:07.212Z,3.00
2022-09-28T07:43:37.077Z,2.60
2022-09-28T07:46:13.969Z,2.30
2022-09-28T07:48:58.668Z,2.50
2022-09-28T07:51:51.993Z,2.60
2022-09-28T07:54:35.863Z,2.30
2022-09-28T07:57:27.993Z,2.40
2022-09-28T08:03:10.763Z,2.10
2022-09-28T08:05:41.298Z,2.60
2022-09-28T08:10:47.715Z,2.60
2022-09-28T08:13:37.864Z,2.60
2022-09-28T08:19:20.847Z,2.50
2022-09-28T08:21:49.864Z,2.10
2022-09-28T08:26:49.073Z,2.60
2022-09-28T08:29:19.833Z,2.30
2022-09-28T08:31:53.228Z,2.20
2022-09-28T08:34:48.071Z,1.80
2022-09-28T08:37:28.917Z,2.40
2022-09-28T08:40:25.234Z,2.20
2022-09-28T08:43:23.560Z,2.00
2022-09-28T08:46:17.380Z,2.00
2022-09-28T08:49:30.374Z,1.70
2022-09-28T08:52:35.868Z,1.90
2022-09-28T08:55:34.734Z,1.90
2022-09-28T08:58:17.781Z,1.70
2022-09-28T09:00:52.009Z,1.70
2022-09-28T09:03:30.499Z,1.90
2022-09-28T09:06:34.725Z,2.00
2022-09-28T09:09:36.109Z,1.60
2022-09-28T09:12:21.877Z,1.90
2022-09-28T09:15:19.278Z,1.40
2022-09-28T09:18:00.262Z,1.60
2022-09-28T09:21:15.756Z,1.40
2022-09-28T09:24:11.609Z,1.40
2022-09-28T09:26:41.745Z,1.30
2022-09-28T09:29:32.244Z,1.10
2022-09-28T09:32:25.991Z,1.30
2022-09-28T09:35:33.005Z,1.00
2022-09-28T09:38:31.355Z,1.00
2022-09-28T09:42:10.428Z,1.30
2022-09-28T09:45:06.252Z,1.10
2022-09-28T09:48:03.986Z,1.00
2022-09-28T09:50:45.119Z,1.20
2022-09-28T09:53:28.971Z,0.90
2022-09-28T09:56:17.290Z,1.20
2022-09-28T09:59:14.402Z,1.20
2022-09-28T10:02:26.632Z,1.20
2022-09-28T10:05:20.044Z,1.00
2022-09-28T10:08:03.766Z,1.20
2022-09-28T10:10:39.106Z,1.30
2022-09-28T10:13:13.770Z,1.10
2022-09-28T10:15:45.568Z,1.40
2022-09-28T10:18:21.494Z,1.10
2022-09-28T10:21:17.062Z,0.80
2022-09-28T10:23:57.548Z,0.70
2022-09-28T10:26:56.175Z,0.80
2022-09-28T10:29:27.508Z,0.70
2022-09-28T10:31:55.784Z,0.90
2022-09-28T10:34:36.219Z,0.90
2022-09-28T10:37:11.505Z,0.80
2022-09-28T10:39:56.147Z,0.70
2022-09-28T10:42:33.955Z,0.90
2022-09-28T10:45:22.000Z,0.90
2022-09-28T10:47:50.549Z,0.80
2022-09-28T10:50:28.067Z,0.90
2022-09-28T10:53:20.375Z,0.80
2022-09-28T10:56:18.836Z,0.70
2022-09-28T10:58:48.926Z,0.70
2022-09-28T11:01:31.375Z,0.90
2022-09-28T11:04:10.517Z,0.90
2022-09-28T11:06:42.173Z,1.00
2022-09-28T11:09:41.581Z,0.70
2022-09-28T11:12:17.861Z,0.90
2022-09-28T11:14:55.715Z,1.10
2022-09-28T11:17:44.113Z,1.60
2022-09-28T11:20:27.799Z,1.20
2022-09-28T11:23:18.447Z,0.90
2022-09-28T11:26:07.890Z,1.10
2022-09-28T11:28:39.814Z,1.00
2022-09-28T11:31:12.701Z,1.00
2022-09-28T11:34:31.438Z,3.70
2022-09-28T11:37:33.868Z,1.10
2022-09-28T11:40:23.049Z,1.10
2022-09-28T11:43:46.720Z,1.10
2022-09-28T11:46:27.863Z,1.00
2022-09-28T11:49:20.838Z,1.50
2022-09-28T11:51:53.419Z,1.20
2022-09-28T11:54:33.879Z,1.50
2022-09-28T11:57:07.157Z,1.00
2022-09-28T11:59:54.085Z,1.20
2022-09-28T12:02:27.898Z,1.00
2022-09-28T12:05:17.127Z,1.20
2022-09-28T12:07:59.274Z,1.00
2022-09-28T12:11:09.896Z,0.80
2022-09-28T12:14:01.433Z,1.20
2022-09-28T12:17:05.890Z,1.10
2022-09-28T12:19:45.371Z,1.00
2022-09-28T12:22:23.805Z,1.20
2022-09-28T12:24:57.423Z,1.20
2022-09-28T12:27:35.307Z,1.00
2022-09-28T12:30:16.717Z,1.30
2022-09-28T12:32:51.460Z,1.20
2022-09-28T12:35:48.976Z,1.00
2022-09-28T12:38:22.937Z,1.10
2022-09-28T12:41:31.462Z,1.30
2022-09-28T12:44:07.585Z,1.10
2022-09-28T12:46:59.091Z,1.00
2022-09-28T12:53:26.176Z,1.20
2022-09-28T12:56:03.455Z,1.80
2022-09-28T12:58:50.918Z,1.50
2022-09-28T13:01:43.576Z,1.30
2022-09-28T13:04:39.398Z,2.20
2022-09-28T13:07:34.062Z,2.00
2022-09-28T13:10:16.972Z,1.60
2022-09-28T13:13:44.926Z,1.60
2022-09-28T13:17:05.490Z,2.10
2022-09-28T13:19:52.247Z,1.40
2022-09-28T13:22:50.123Z,1.40
2022-09-28T13:25:22.416Z,2.50
2022-09-28T13:28:01.326Z,2.10
2022-09-28T13:30:36.791Z,2.20
2022-09-28T13:33:08.271Z,1.70
2022-09-28T13:35:43.357Z,1.80
2022-09-28T13:38:25.652Z,2.30
2022-09-28T13:41:06.668Z,2.40
2022-09-28T13:43:40.168Z,2.00
2022-09-28T13:46:24.532Z,1.90
2022-09-28T13:49:14.049Z,2.00
2022-09-28T13:52:02.944Z,1.80
2022-09-28T13:54:50.525Z,2.00
2022-09-28T13:57:27.506Z,3.20
2022-09-28T14:00:11.390Z,3.10
2022-09-28T14:03:21.252Z,2.40
2022-09-28T14:06:11.613Z,2.10
2022-09-28T14:09:06.514Z,2.20
2022-09-28T14:11:37.667Z,1.80
2022-09-28T14:14:24.824Z,1.40
2022-09-28T14:17:20.309Z,1.70
2022-09-28T14:20:05.415Z,1.80
2022-09-28T14:22:37.781Z,2.00
2022-09-28T14:25:27.860Z,2.20
2022-09-28T14:28:06.815Z,2.60
2022-09-28T14:33:21.240Z,1.90
2022-09-28T14:35:57.061Z,2.40
2022-09-28T14:39:08.634Z,2.70
2022-09-28T14:41:44.109Z,2.60
2022-09-28T14:44:14.657Z,2.60
2022-09-28T14:46:45.664Z,2.50
2022-09-28T14:49:25.633Z,2.80
2022-09-28T14:51:56.545Z,3.00
2022-09-28T14:54:31.103Z,2.80
2022-09-28T14:57:23.806Z,2.90
2022-09-28T14:59:52.342Z,2.70
2022-09-28T15:02:26.552Z,2.90
2022-09-28T15:05:00.348Z,3.10
2022-09-28T15:07:42.391Z,3.50
2022-09-28T15:10:33.632Z,2.90
2022-09-28T15:13:21.487Z,3.40
2022-09-28T15:15:59.724Z,2.60
2022-09-28T15:18:55.117Z,2.90
2022-09-28T15:21:32.053Z,2.50
2022-09-28T15:24:00.055Z,2.30
2022-09-28T15:26:34.247Z,2.90
2022-09-28T15:29:03.540Z,2.60
2022-09-28T15:31:36.514Z,2.90
2022-09-28T15:34:22.889Z,2.20
2022-09-28T15:36:50.992Z,2.00
2022-09-28T15:39:23.772Z,1.80
2022-09-28T15:41:52.902Z,2.00
2022-09-28T15:44:29.654Z,1.70
2022-09-28T15:47:16.898Z,1.60
2022-09-28T15:49:58.773Z,1.40
2022-09-28T15:52:38.525Z,1.20
2022-09-28T15:55:31.669Z,1.10
2022-09-28T15:58:17.287Z,1.20
2022-09-28T16:00:50.830Z,1.00
2022-09-28T16:03:28.896Z,1.30
2022-09-28T16:06:11.057Z,1.40
2022-09-28T16:08:45.263Z,1.20
2022-09-28T16:11:29.226Z,1.30
2022-09-28T16:14:08.854Z,1.40
2022-09-28T16:16:46.620Z,1.50
2022-09-28T16:19:38.374Z,1.70
2022-09-28T16:22:14.301Z,1.60
2022-09-28T16:24:53.727Z,1.40
2022-09-28T16:30:25.846Z,2.10
2022-09-28T16:32:57.137Z,2.20
2022-09-28T16:35:30.709Z,1.70
2022-09-28T16:38:01.753Z,2.50
2022-09-28T16:40:32.621Z,2.80
2022-09-28T16:43:04.518Z,2.20
2022-09-28T16:45:35.300Z,2.40
2022-09-28T16:48:04.781Z,2.00
2022-09-28T16:53:37.307Z,2.90
2022-09-28T16:56:14.677Z,5.00
2022-09-28T16:58:44.224Z,3.50
2022-09-28T17:01:21.309Z,3.30
2022-09-28T17:03:53.828Z,2.80
2022-09-28T17:06:29.139Z,3.10
2022-09-28T17:09:06.974Z,2.60
2022-09-28T17:11:35.077Z,3.00
2022-09-28T17:14:07.117Z,2.80
2022-09-28T17:17:03.811Z,3.20
2022-09-28T17:19:31.608Z,2.70
2022-09-28T17:22:08.092Z,3.30
2022-09-28T17:24:41.802Z,3.40
2022-09-28T17:27:32.986Z,3.50
2022-09-28T17:30:13.658Z,2.60
2022-09-28T17:32:48.117Z,3.20
2022-09-28T17:35:26.346Z,3.40
2022-09-28T17:38:00.175Z,3.50
2022-09-28T17:40:29.697Z,4.40
2022-09-28T17:42:59.112Z,4.40
2022-09-28T17:45:28.876Z,3.80
2022-09-28T17:48:01.742Z,3.90
2022-09-28T17:50:36.385Z,3.70
2022-09-28T17:53:36.501Z,3.60
2022-09-28T17:56:08.040Z,3.50
2022-09-28T17:58:43.024Z,3.40
2022-09-28T18:01:12.510Z,3.50
2022-09-28T18:03:44.804Z,3.80
2022-09-28T18:06:19.994Z,3.70
2022-09-28T18:08:51.452Z,3.50
2022-09-28T18:11:19.883Z,3.60
2022-09-28T18:13:50.464Z,4.10
2022-09-28T18:16:23.447Z,4.30
2022-09-28T18:18:59.614Z,4.00
2022-09-28T18:21:37.921Z,3.40
2022-09-28T18:24:06.684Z,4.10
2022-09-28T18:26:37.685Z,4.00
2022-09-28T18:29:11.984Z,3.40
2022-09-28T18:31:52.126Z,4.00
2022-09-28T18:34:21.071Z,4.10
2022-09-28T18:37:04.822Z,4.20
2022-09-28T18:39:42.929Z,4.60
2022-09-28T18:42:20.821Z,4.80
2022-09-28T18:45:16.509Z,4.90
2022-09-28T18:47:55.288Z,5.10
2022-09-28T18:50:27.424Z,4.90
2022-09-28T18:53:11.899Z,5.00
2022-09-28T18:55:42.946Z,4.90
2022-09-28T18:58:21.265Z,5.10
2022-09-28T19:01:08.457Z,5.60
2022-09-28T19:03:47.146Z,5.40
2022-09-28T19:06:20.244Z,5.70
2022-09-28T19:08:53.502Z,5.30
2022-09-28T19:11:29.156Z,5.40
2022-09-28T19:13:58.449Z,5.70
2022-09-28T19:19:03.291Z,5.00
2022-09-28T19:21:32.224Z,5.70
2022-09-28T19:24:07.571Z,5.90
2022-09-28T19:26:41.548Z,6.30
2022-09-28T19:29:13.071Z,6.00
2022-09-28T19:31:44.081Z,6.30
2022-09-28T19:34:15.764Z,6.00
2022-09-28T19:36:47.342Z,5.80
2022-09-28T19:39:19.846Z,6.30
2022-09-28T19:41:51.418Z,5.60
2022-09-28T19:44:27.957Z,5.90
2022-09-28T19:47:07.719Z,7.00
2022-09-28T19:49:43.209Z,7.20
2022-09-28T19:52:16.840Z,6.90
2022-09-28T19:55:20.203Z,6.70
2022-09-28T19:57:56.170Z,5.80
2022-09-28T20:00:27.293Z,6.30
2022-09-28T20:03:19.906Z,5.20
2022-09-28T20:05:49.620Z,4.30
2022-09-28T20:08:27.148Z,5.30
2022-09-28T20:11:06.051Z,5.50
2022-09-28T20:13:41.877Z,4.50
2022-09-28T20:16:24.602Z,4.70
2022-09-28T20:19:08.388Z,4.20
2022-09-28T20:21:49.112Z,4.80
2022-09-28T20:24:40.743Z,5.20
2022-09-28T20:27:24.263Z,5.20
2022-09-28T20:29:59.208Z,5.60
2022-09-28T20:32:49.657Z,5.30
2022-09-28T20:35:30.437Z,6.10
2022-09-28T20:38:13.986Z,5.90
2022-09-28T20:40:51.936Z,6.40
2022-09-28T20:43:23.656Z,6.90
2022-09-28T20:45:52.136Z,7.50
2022-09-28T20:48:20.461Z,7.30
2022-09-28T20:51:12.658Z,7.00
2022-09-28T20:53:52.255Z,6.40
2022-09-28T20:56:32.636Z,6.20
2022-09-28T20:59:04.039Z,7.10
2022-09-28T21:01:39.098Z,5.90
2022-09-28T21:04:17.675Z,5.80
2022-09-28T21:06:51.427Z,5.00
2022-09-28T21:09:19.659Z,4.60
2022-09-28T21:11:48.305Z,5.30
2022-09-28T21:14:18.883Z,5.70
2022-09-28T21:16:51.009Z,4.60
2022-09-28T21:19:20.935Z,4.80
2022-09-28T21:21:51.964Z,4.80
2022-09-28T21:24:29.605Z,6.50
2022-09-28T21:27:00.094Z,6.40
2022-09-28T21:29:49.291Z,5.60
2022-09-28T21:32:29.124Z,5.50
2022-09-28T21:35:09.364Z,5.40
2022-09-28T21:37:40.635Z,6.00
2022-09-28T21:40:11.670Z,5.20
2022-09-28T21:42:53.711Z,5.40
2022-09-28T21:45:40.706Z,5.10
2022-09-28T21:48:15.807Z,4.30
2022-09-28T21:51:01.022Z,3.70
2022-09-28T21:53:37.441Z,3.70
2022-09-28T21:56:16.883Z,4.00
2022-09-28T21:59:01.476Z,3.90
2022-09-28T22:02:20.162Z,3.80
2022-09-28T22:04:51.911Z,3.60
2022-09-28T22:07:47.242Z,3.30
2022-09-28T22:10:18.961Z,3.60
2022-09-28T22:12:51.423Z,3.70
2022-09-28T22:15:23.675Z,3.60
2022-09-28T22:18:07.778Z,4.00
2022-09-28T22:20:38.837Z,3.90
2022-09-28T22:23:28.371Z,4.70
2022-09-28T22:26:18.069Z,5.10
2022-09-28T22:29:10.159Z,5.10
2022-09-28T22:31:42.487Z,4.50
2022-09-28T22:34:34.291Z,4.10
2022-09-28T22:37:15.024Z,4.10
2022-09-28T22:39:48.371Z,4.20
2022-09-28T22:42:17.400Z,4.50
2022-09-28T22:44:55.244Z,4.20
2022-09-28T22:47:26.464Z,5.10
2022-09-28T22:49:58.077Z,4.60
2022-09-28T22:52:33.680Z,3.50
2022-09-28T22:55:30.525Z,3.40
2022-09-28T22:58:15.692Z,3.20
2022-09-28T23:01:11.400Z,3.90
2022-09-28T23:03:44.783Z,3.80
2022-09-28T23:06:24.729Z,3.80
2022-09-28T23:09:04.816Z,3.10
2022-09-28T23:11:49.829Z,2.90
2022-09-28T23:14:22.933Z,3.50
2022-09-28T23:16:58.735Z,3.40
2022-09-28T23:19:28.447Z,3.60
2022-09-28T23:22:00.032Z,3.70
2022-09-28T23:24:28.355Z,3.50
2022-09-28T23:27:17.576Z,3.80
2022-09-28T23:29:57.970Z,3.70
2022-09-28T23:32:59.456Z,3.70
2022-09-28T23:35:43.565Z,3.40
2022-09-28T23:38:27.047Z,3.50
2022-09-28T23:41:10.580Z,3.80
2022-09-28T23:43:48.375Z,4.10
2022-09-28T23:46:30.783Z,3.50
2022-09-28T23:49:07.971Z,4.20
2022-09-28T23:51:41.717Z,4.10
2022-09-28T23:54:13.283Z,4.60
2022-09-28T23:56:50.555Z,4.90
2022-09-28T23:59:36.729Z,6.10
